createdAt,value
2017-07-29T00:00:04.386Z,15.84
2017-07-29T00:00:17.856Z,15.73
2017-07-29T00:00:31.944Z,15.75
2017-07-29T00:00:45.369Z,15.7
2017-07-29T00:00:58.851Z,15.84
2017-07-29T00:01:12.333Z,15.78
2017-07-29T00:01:25.710Z,15.71
2017-07-29T00:01:38.709Z,15.74
2017-07-29T00:01:51.653Z,15.71
2017-07-29T00:02:04.558Z,15.73
2017-07-29T00:02:18.036Z,15.77
2017-07-29T00:02:31.504Z,15.74
2017-07-29T00:02:44.989Z,15.74
2017-07-29T00:02:57.902Z,15.81
2017-07-29T00:03:11.386Z,15.81
2017-07-29T00:03:24.838Z,15.81
2017-07-29T00:03:37.721Z,15.8
2017-07-29T00:03:51.370Z,15.83
2017-07-29T00:04:04.263Z,15.8
2017-07-29T00:04:16.664Z,15.78
2017-07-29T00:04:30.164Z,15.7
2017-07-29T00:04:43.090Z,15.74
2017-07-29T00:04:56.484Z,15.68
2017-07-29T00:05:09.924Z,15.73
2017-07-29T00:05:23.367Z,15.62
2017-07-29T00:05:36.305Z,15.65
2017-07-29T00:05:49.846Z,15.86
2017-07-29T00:06:03.299Z,15.75
2017-07-29T00:06:16.226Z,15.68
2017-07-29T00:06:29.651Z,15.78
2017-07-29T00:06:43.191Z,15.68
2017-07-29T00:06:56.689Z,15.67
2017-07-29T00:07:10.196Z,15.7
2017-07-29T00:07:23.721Z,15.71
2017-07-29T00:07:37.125Z,15.68
2017-07-29T00:07:50.601Z,15.74
2017-07-29T00:08:03.501Z,15.71
2017-07-29T00:08:16.938Z,15.71
2017-07-29T00:08:30.455Z,15.7
2017-07-29T00:08:43.900Z,15.8
2017-07-29T00:08:56.289Z,15.71
2017-07-29T00:09:08.655Z,15.7
2017-07-29T00:09:22.101Z,15.73
2017-07-29T00:09:35.633Z,15.68
2017-07-29T00:09:49.146Z,15.7
2017-07-29T00:10:02.089Z,15.67
2017-07-29T00:10:15.098Z,15.71
2017-07-29T00:10:28.691Z,15.71
2017-07-29T00:10:42.188Z,15.7
2017-07-29T00:10:55.619Z,15.67
2017-07-29T00:11:08.586Z,15.68
2017-07-29T00:11:22.034Z,15.58
2017-07-29T00:11:35.465Z,15.59
2017-07-29T00:11:48.926Z,15.56
2017-07-29T00:12:02.379Z,15.59
2017-07-29T00:12:15.851Z,15.59
2017-07-29T00:12:29.311Z,15.59
2017-07-29T00:12:42.748Z,15.56
2017-07-29T00:12:55.713Z,15.58
2017-07-29T00:13:09.186Z,15.68
2017-07-29T00:13:22.637Z,15.65
2017-07-29T00:13:35.582Z,15.59
2017-07-29T00:13:48.999Z,15.73
2017-07-29T00:14:01.945Z,15.71
2017-07-29T00:14:15.437Z,15.67
2017-07-29T00:14:28.842Z,15.71
2017-07-29T00:14:41.797Z,15.71
2017-07-29T00:14:54.709Z,15.67
2017-07-29T00:15:08.131Z,15.7
2017-07-29T00:15:21.058Z,15.59
2017-07-29T00:15:34.795Z,15.74
2017-07-29T00:15:48.290Z,15.71
2017-07-29T00:16:01.727Z,15.75
2017-07-29T00:16:15.187Z,15.68
2017-07-29T00:16:28.068Z,15.7
2017-07-29T00:16:40.460Z,15.7
2017-07-29T00:16:53.985Z,15.75
2017-07-29T00:17:07.483Z,15.7
2017-07-29T00:17:20.436Z,15.81
2017-07-29T00:17:33.878Z,15.68
2017-07-29T00:17:47.350Z,15.6
2017-07-29T00:18:00.871Z,15.67
2017-07-29T00:18:14.349Z,15.75
2017-07-29T00:18:27.778Z,15.68
2017-07-29T00:18:41.235Z,15.7
2017-07-29T00:18:54.185Z,15.68
2017-07-29T00:19:07.644Z,15.71
2017-07-29T00:19:21.057Z,15.74
2017-07-29T00:19:34.540Z,15.67
2017-07-29T00:19:47.498Z,15.68
2017-07-29T00:20:00.927Z,15.56
2017-07-29T00:20:14.434Z,15.62
2017-07-29T00:20:27.861Z,15.68
2017-07-29T00:20:40.790Z,15.56
2017-07-29T00:20:54.242Z,15.65
2017-07-29T00:21:07.712Z,15.6
2017-07-29T00:21:21.182Z,15.6
2017-07-29T00:21:34.078Z,15.56
2017-07-29T00:21:45.918Z,15.59
2017-07-29T00:21:59.336Z,15.6
2017-07-29T00:22:12.227Z,15.6
2017-07-29T00:22:25.696Z,15.55
2017-07-29T00:22:38.638Z,15.53
2017-07-29T00:22:52.160Z,15.55
2017-07-29T00:23:04.551Z,15.55
2017-07-29T00:23:17.988Z,15.59
2017-07-29T00:23:31.381Z,15.58
2017-07-29T00:23:44.819Z,15.51
2017-07-29T00:23:58.364Z,15.51
2017-07-29T00:24:11.840Z,15.43
2017-07-29T00:24:24.234Z,15.55
2017-07-29T00:24:37.674Z,15.53
2017-07-29T00:24:51.077Z,15.59
2017-07-29T00:25:04.494Z,15.6
2017-07-29T00:25:17.419Z,15.6
2017-07-29T00:25:30.935Z,15.58
2017-07-29T00:25:44.421Z,15.62
2017-07-29T00:25:57.919Z,15.56
2017-07-29T00:26:11.462Z,15.7
2017-07-29T00:26:24.913Z,15.58
2017-07-29T00:26:38.379Z,15.59
2017-07-29T00:26:51.818Z,15.68
2017-07-29T00:27:05.341Z,15.6
2017-07-29T00:27:18.783Z,15.63
2017-07-29T00:27:32.296Z,15.7
2017-07-29T00:27:45.662Z,15.73
2017-07-29T00:27:58.071Z,15.67
2017-07-29T00:28:11.603Z,15.68
2017-07-29T00:28:24.513Z,15.58
2017-07-29T00:28:37.948Z,15.68
2017-07-29T00:28:50.890Z,15.68
2017-07-29T00:29:04.298Z,15.65
2017-07-29T00:29:17.779Z,15.59
2017-07-29T00:29:31.211Z,15.59
2017-07-29T00:29:44.694Z,15.59
2017-07-29T00:29:57.676Z,15.55
2017-07-29T00:30:11.180Z,15.6
2017-07-29T00:30:24.608Z,15.6
2017-07-29T00:30:38.552Z,15.65
2017-07-29T00:30:52.032Z,15.62
2017-07-29T00:31:05.580Z,15.65
2017-07-29T00:31:19.087Z,15.56
2017-07-29T00:31:32.038Z,15.58
2017-07-29T00:31:45.002Z,15.55
2017-07-29T00:31:57.906Z,15.59
2017-07-29T00:32:10.322Z,15.55
2017-07-29T00:32:23.706Z,15.55
2017-07-29T00:32:37.121Z,15.55
2017-07-29T00:32:50.077Z,15.55
2017-07-29T00:33:03.048Z,15.47
2017-07-29T00:33:15.475Z,15.45
2017-07-29T00:33:28.936Z,15.4
2017-07-29T00:33:42.376Z,15.55
2017-07-29T00:33:55.822Z,15.51
2017-07-29T00:34:08.757Z,15.41
2017-07-29T00:34:22.163Z,15.47
2017-07-29T00:34:35.605Z,15.4
2017-07-29T00:34:49.105Z,15.4
2017-07-29T00:35:02.028Z,15.43
2017-07-29T00:35:14.991Z,15.47
2017-07-29T00:35:27.990Z,15.47
2017-07-29T00:35:41.481Z,15.41
2017-07-29T00:35:54.870Z,15.43
2017-07-29T00:36:07.815Z,15.44
2017-07-29T00:36:21.301Z,15.47
2017-07-29T00:36:34.734Z,15.47
2017-07-29T00:36:48.133Z,15.47
2017-07-29T00:37:01.627Z,15.49
2017-07-29T00:37:14.549Z,15.45
2017-07-29T00:37:28.069Z,15.43
2017-07-29T00:37:41.031Z,15.47
2017-07-29T00:37:54.448Z,15.41
2017-07-29T00:38:07.449Z,15.44
2017-07-29T00:38:20.932Z,15.41
2017-07-29T00:38:34.391Z,15.49
2017-07-29T00:38:47.865Z,15.47
2017-07-29T00:39:01.422Z,15.43
2017-07-29T00:39:14.937Z,15.4
2017-07-29T00:39:28.403Z,15.45
2017-07-29T00:39:41.864Z,15.4
2017-07-29T00:39:55.258Z,15.4
2017-07-29T00:40:08.185Z,15.41
2017-07-29T00:40:21.151Z,15.47
2017-07-29T00:40:34.577Z,15.44
2017-07-29T00:40:47.453Z,15.47
2017-07-29T00:41:00.842Z,15.45
2017-07-29T00:41:14.212Z,15.45
2017-07-29T00:41:27.681Z,15.4
2017-07-29T00:41:40.693Z,15.37
2017-07-29T00:41:54.157Z,15.41
2017-07-29T00:42:07.087Z,15.44
2017-07-29T00:42:20.470Z,15.41
2017-07-29T00:42:33.371Z,15.4
2017-07-29T00:42:46.314Z,15.41
2017-07-29T00:42:59.768Z,15.33
2017-07-29T00:43:12.788Z,15.31
2017-07-29T00:43:26.215Z,15.34
2017-07-29T00:43:39.082Z,15.34
2017-07-29T00:43:52.500Z,15.3
2017-07-29T00:44:05.921Z,15.31
2017-07-29T00:44:18.919Z,15.33
2017-07-29T00:44:32.343Z,15.33
2017-07-29T00:44:45.846Z,15.37
2017-07-29T00:44:59.314Z,15.37
2017-07-29T00:45:12.308Z,15.35
2017-07-29T00:45:25.755Z,15.35
2017-07-29T00:45:39.184Z,15.34
2017-07-29T00:45:52.714Z,15.25
2017-07-29T00:46:06.160Z,15.34
2017-07-29T00:46:19.632Z,15.27
2017-07-29T00:46:33.121Z,15.31
2017-07-29T00:46:46.572Z,15.3
2017-07-29T00:47:00.059Z,15.27
2017-07-29T00:47:13.528Z,15.23
2017-07-29T00:47:26.981Z,15.31
2017-07-29T00:47:39.339Z,15.27
2017-07-29T00:47:52.852Z,15.26
2017-07-29T00:48:05.839Z,15.26
2017-07-29T00:48:19.253Z,15.19
2017-07-29T00:48:32.195Z,15.18
2017-07-29T00:48:45.609Z,15.22
2017-07-29T00:48:59.117Z,15.34
2017-07-29T00:49:11.492Z,15.25
2017-07-29T00:49:24.948Z,15.23
2017-07-29T00:49:38.436Z,15.3
2017-07-29T00:49:51.928Z,15.27
2017-07-29T00:50:05.404Z,15.26
2017-07-29T00:50:18.808Z,15.33
2017-07-29T00:50:32.282Z,15.37
2017-07-29T00:50:45.673Z,15.37
2017-07-29T00:50:59.254Z,15.33
2017-07-29T00:51:11.660Z,15.37
2017-07-29T00:51:25.095Z,15.33
2017-07-29T00:51:38.041Z,15.41
2017-07-29T00:51:51.426Z,15.41
2017-07-29T00:52:04.362Z,15.4
2017-07-29T00:52:16.763Z,15.43
2017-07-29T00:52:30.268Z,15.43
2017-07-29T00:52:43.743Z,15.43
2017-07-29T00:52:57.191Z,15.47
2017-07-29T00:53:10.617Z,15.53
2017-07-29T00:53:24.042Z,15.45
2017-07-29T00:53:37.532Z,15.45
2017-07-29T00:53:50.984Z,15.47
2017-07-29T00:54:04.493Z,15.47
2017-07-29T00:54:17.977Z,15.49
2017-07-29T00:54:31.461Z,15.52
2017-07-29T00:54:44.898Z,15.45
2017-07-29T00:54:58.293Z,15.49
2017-07-29T00:55:11.262Z,15.44
2017-07-29T00:55:24.685Z,15.43
2017-07-29T00:55:38.092Z,15.43
2017-07-29T00:55:51.508Z,15.4
2017-07-29T00:56:04.936Z,15.4
2017-07-29T00:56:17.861Z,15.41
2017-07-29T00:56:31.284Z,15.4
2017-07-29T00:56:44.774Z,15.43
2017-07-29T00:56:58.178Z,15.41
2017-07-29T00:57:11.651Z,15.41
2017-07-29T00:57:25.093Z,15.37
2017-07-29T00:57:38.592Z,15.31
2017-07-29T00:57:52.096Z,15.3
2017-07-29T00:58:05.561Z,15.31
2017-07-29T00:58:18.972Z,15.33
2017-07-29T00:58:31.863Z,15.34
2017-07-29T00:58:45.319Z,15.35
2017-07-29T00:58:58.194Z,15.34
2017-07-29T00:59:11.692Z,15.35
2017-07-29T00:59:25.162Z,15.31
2017-07-29T00:59:38.623Z,15.3
2017-07-29T00:59:51.552Z,15.33
2017-07-29T01:00:04.432Z,15.35
2017-07-29T01:00:17.932Z,15.27
2017-07-29T01:00:31.357Z,15.3
2017-07-29T01:00:44.827Z,15.33
2017-07-29T01:00:57.956Z,15.34
2017-07-29T01:01:11.423Z,15.26
2017-07-29T01:01:24.872Z,15.34
2017-07-29T01:01:37.859Z,15.37
2017-07-29T01:01:51.295Z,15.37
2017-07-29T01:02:04.700Z,15.3
2017-07-29T01:02:17.654Z,15.35
2017-07-29T01:02:30.638Z,15.33
2017-07-29T01:02:44.079Z,15.33
2017-07-29T01:02:57.513Z,15.34
2017-07-29T01:03:10.458Z,15.3
2017-07-29T01:03:23.424Z,15.31
2017-07-29T01:03:36.851Z,15.38
2017-07-29T01:03:50.341Z,15.35
2017-07-29T01:04:03.254Z,15.34
2017-07-29T01:04:16.670Z,15.31
2017-07-29T01:04:30.148Z,15.31
2017-07-29T01:04:43.543Z,15.37
2017-07-29T01:04:55.945Z,15.37
2017-07-29T01:05:09.412Z,15.3
2017-07-29T01:05:22.885Z,15.34
2017-07-29T01:05:35.904Z,15.33
2017-07-29T01:05:49.427Z,15.3
2017-07-29T01:06:02.357Z,15.4
2017-07-29T01:06:15.771Z,15.31
2017-07-29T01:06:29.232Z,15.4
2017-07-29T01:06:42.665Z,15.38
2017-07-29T01:06:55.589Z,15.33
2017-07-29T01:07:08.996Z,15.34
2017-07-29T01:07:21.929Z,15.27
2017-07-29T01:07:35.387Z,15.3
2017-07-29T01:07:48.357Z,15.25
2017-07-29T01:08:01.266Z,15.3
2017-07-29T01:08:13.660Z,15.26
2017-07-29T01:08:27.066Z,15.31
2017-07-29T01:08:40.488Z,15.31
2017-07-29T01:08:52.849Z,15.31
2017-07-29T01:09:06.312Z,15.16
2017-07-29T01:09:19.792Z,15.27
2017-07-29T01:09:33.268Z,15.25
2017-07-29T01:09:46.752Z,15.16
2017-07-29T01:10:00.179Z,15.2
2017-07-29T01:10:13.107Z,15.15
2017-07-29T01:10:26.585Z,15.26
2017-07-29T01:10:40.072Z,15.2
2017-07-29T01:10:53.578Z,15.18
2017-07-29T01:11:06.471Z,15.1
2017-07-29T01:11:19.982Z,15.13
2017-07-29T01:11:33.506Z,15.13
2017-07-29T01:11:47.011Z,15.08
2017-07-29T01:11:59.903Z,15.05
2017-07-29T01:12:12.345Z,15.07
2017-07-29T01:12:25.781Z,15.12
2017-07-29T01:12:38.670Z,15.08
2017-07-29T01:12:52.092Z,15.13
2017-07-29T01:13:05.609Z,15.07
2017-07-29T01:13:19.080Z,15.07
2017-07-29T01:13:32.539Z,15.08
2017-07-29T01:13:46.005Z,15.05
2017-07-29T01:13:59.496Z,15.16
2017-07-29T01:14:12.448Z,15.1
2017-07-29T01:14:25.919Z,15.05
2017-07-29T01:14:39.378Z,15.12
2017-07-29T01:14:52.788Z,15.04
2017-07-29T01:15:06.246Z,15.08
2017-07-29T01:15:19.168Z,15.05
2017-07-29T01:15:32.644Z,15.13
2017-07-29T01:15:45.563Z,15.12
2017-07-29T01:15:58.509Z,15.07
2017-07-29T01:16:12.212Z,15.02
2017-07-29T01:16:25.187Z,15.05
2017-07-29T01:16:38.143Z,15.12
2017-07-29T01:16:51.068Z,15.08
2017-07-29T01:17:03.968Z,15
2017-07-29T01:17:16.956Z,15.05
2017-07-29T01:17:30.488Z,15.05
2017-07-29T01:17:43.960Z,14.97
2017-07-29T01:17:56.935Z,15
2017-07-29T01:18:09.820Z,14.97
2017-07-29T01:18:22.854Z,14.87
2017-07-29T01:18:36.332Z,14.95
2017-07-29T01:18:49.248Z,15
2017-07-29T01:19:02.713Z,14.9
2017-07-29T01:19:17.536Z,14.82
2017-07-29T01:19:30.960Z,14.93
2017-07-29T01:19:44.380Z,14.97
2017-07-29T01:19:57.846Z,14.83
2017-07-29T01:20:11.349Z,14.82
2017-07-29T01:20:26.332Z,14.83
2017-07-29T01:20:39.728Z,14.93
2017-07-29T01:20:52.649Z,14.83
2017-07-29T01:21:05.577Z,14.8
2017-07-29T01:21:19.052Z,14.82
2017-07-29T01:21:31.966Z,14.77
2017-07-29T01:21:45.403Z,14.86
2017-07-29T01:21:58.321Z,14.7
2017-07-29T01:22:11.263Z,14.71
2017-07-29T01:22:24.866Z,14.7
2017-07-29T01:22:38.352Z,14.69
2017-07-29T01:22:51.279Z,14.69
2017-07-29T01:23:04.696Z,14.67
2017-07-29T01:23:18.198Z,14.75
2017-07-29T01:23:31.639Z,14.71
2017-07-29T01:23:45.108Z,14.66
2017-07-29T01:23:58.579Z,14.69
2017-07-29T01:24:12.049Z,14.74
2017-07-29T01:24:25.557Z,14.71
2017-07-29T01:24:39.072Z,14.77
2017-07-29T01:24:52.475Z,14.75
2017-07-29T01:25:05.901Z,14.67
2017-07-29T01:25:19.339Z,14.7
2017-07-29T01:25:32.813Z,14.67
2017-07-29T01:25:46.325Z,14.69
2017-07-29T01:25:59.811Z,14.71
2017-07-29T01:26:12.770Z,14.75
2017-07-29T01:26:26.155Z,14.71
2017-07-29T01:26:39.631Z,14.77
2017-07-29T01:26:53.075Z,14.71
2017-07-29T01:27:05.976Z,14.69
2017-07-29T01:27:18.956Z,14.71
2017-07-29T01:27:32.357Z,14.61
2017-07-29T01:27:45.811Z,14.64
2017-07-29T01:27:59.235Z,14.64
2017-07-29T01:28:12.169Z,14.64
2017-07-29T01:28:25.816Z,14.63
2017-07-29T01:28:39.256Z,14.57
2017-07-29T01:28:52.713Z,14.53
2017-07-29T01:29:05.087Z,14.6
2017-07-29T01:29:18.611Z,14.53
2017-07-29T01:29:32.120Z,14.45
2017-07-29T01:29:45.629Z,14.46
2017-07-29T01:29:58.585Z,14.46
2017-07-29T01:30:12.019Z,14.49
2017-07-29T01:30:25.479Z,14.44
2017-07-29T01:30:38.969Z,14.41
2017-07-29T01:30:52.387Z,14.44
2017-07-29T01:31:05.988Z,14.44
2017-07-29T01:31:19.433Z,14.41
2017-07-29T01:31:32.917Z,14.38
2017-07-29T01:31:46.360Z,14.34
2017-07-29T01:31:59.304Z,14.31
2017-07-29T01:32:12.782Z,14.36
2017-07-29T01:32:26.193Z,14.34
2017-07-29T01:32:38.607Z,14.31
2017-07-29T01:32:51.554Z,14.36
2017-07-29T01:33:04.987Z,14.28
2017-07-29T01:33:18.441Z,14.26
2017-07-29T01:33:31.362Z,14.27
2017-07-29T01:33:44.762Z,14.28
2017-07-29T01:33:57.712Z,14.21
2017-07-29T01:34:10.658Z,14.27
2017-07-29T01:34:24.156Z,14.24
2017-07-29T01:34:37.562Z,14.19
2017-07-29T01:34:51.090Z,14.23
2017-07-29T01:35:04.526Z,14.21
2017-07-29T01:35:17.968Z,14.19
2017-07-29T01:35:31.399Z,14.26
2017-07-29T01:35:44.855Z,14.15
2017-07-29T01:35:58.296Z,14.15
2017-07-29T01:36:11.225Z,14.12
2017-07-29T01:36:24.662Z,14.11
2017-07-29T01:36:38.181Z,14.16
2017-07-29T01:36:51.569Z,14.15
2017-07-29T01:37:05.071Z,14.11
2017-07-29T01:37:18.529Z,14.15
2017-07-29T01:37:31.501Z,14.09
2017-07-29T01:37:45.009Z,14.12
2017-07-29T01:37:58.470Z,14.12
2017-07-29T01:38:10.841Z,14.11
2017-07-29T01:38:23.278Z,14.12
2017-07-29T01:38:36.791Z,14.06
2017-07-29T01:38:50.254Z,14.13
2017-07-29T01:39:03.225Z,14.11
2017-07-29T01:39:15.664Z,14.03
2017-07-29T01:39:28.560Z,14.03
2017-07-29T01:39:42.054Z,14.11
2017-07-29T01:39:55.461Z,13.97
2017-07-29T01:40:08.939Z,13.97
2017-07-29T01:40:21.353Z,14.08
2017-07-29T01:40:34.774Z,14.01
2017-07-29T01:40:48.189Z,14.08
2017-07-29T01:41:02.306Z,14.05
2017-07-29T01:41:15.809Z,14.02
2017-07-29T01:41:29.272Z,14.03
2017-07-29T01:41:42.751Z,13.95
2017-07-29T01:41:55.715Z,14.03
2017-07-29T01:42:08.582Z,13.9
2017-07-29T01:42:22.058Z,13.94
2017-07-29T01:42:35.562Z,13.9
2017-07-29T01:42:48.977Z,13.94
2017-07-29T01:43:02.557Z,13.91
2017-07-29T01:43:16.039Z,13.97
2017-07-29T01:43:29.503Z,13.95
2017-07-29T01:43:43.131Z,13.99
2017-07-29T01:43:56.628Z,13.9
2017-07-29T01:44:09.638Z,13.93
2017-07-29T01:44:23.083Z,13.88
2017-07-29T01:44:36.569Z,13.94
2017-07-29T01:44:50.059Z,13.93
2017-07-29T01:45:03.011Z,14.02
2017-07-29T01:45:16.492Z,13.9
2017-07-29T01:45:28.885Z,13.87
2017-07-29T01:45:42.346Z,13.91
2017-07-29T01:45:55.268Z,13.9
2017-07-29T01:46:08.812Z,13.93
2017-07-29T01:46:22.991Z,13.94
2017-07-29T01:46:36.454Z,13.91
2017-07-29T01:46:49.843Z,13.9
2017-07-29T01:47:03.217Z,13.91
2017-07-29T01:47:16.662Z,13.88
2017-07-29T01:47:30.163Z,13.93
2017-07-29T01:47:43.106Z,13.86
2017-07-29T01:47:56.028Z,13.91
2017-07-29T01:48:09.501Z,13.93
2017-07-29T01:48:22.952Z,13.9
2017-07-29T01:48:36.475Z,13.84
2017-07-29T01:48:49.920Z,13.76
2017-07-29T01:49:02.870Z,13.79
2017-07-29T01:49:16.299Z,13.91
2017-07-29T01:49:29.749Z,13.9
2017-07-29T01:49:43.162Z,13.87
2017-07-29T01:49:56.567Z,13.91
2017-07-29T01:50:09.509Z,13.79
2017-07-29T01:50:23.031Z,13.88
2017-07-29T01:50:36.579Z,13.88
2017-07-29T01:50:50.073Z,13.88
2017-07-29T01:51:02.942Z,13.84
2017-07-29T01:51:16.403Z,13.84
2017-07-29T01:51:29.850Z,13.88
2017-07-29T01:51:43.310Z,13.78
2017-07-29T01:51:56.799Z,13.81
2017-07-29T01:52:10.253Z,13.79
2017-07-29T01:52:23.717Z,13.83
2017-07-29T01:52:37.156Z,13.83
2017-07-29T01:52:50.626Z,13.81
2017-07-29T01:53:04.074Z,13.84
2017-07-29T01:53:17.510Z,13.83
2017-07-29T01:53:30.427Z,13.75
2017-07-29T01:53:43.880Z,13.87
2017-07-29T01:53:56.351Z,13.79
2017-07-29T01:54:09.843Z,13.73
2017-07-29T01:54:22.821Z,13.78
2017-07-29T01:54:36.316Z,13.81
2017-07-29T01:54:49.746Z,13.79
2017-07-29T01:55:02.148Z,13.76
2017-07-29T01:55:15.585Z,13.69
2017-07-29T01:55:29.059Z,13.76
2017-07-29T01:55:42.514Z,13.72
2017-07-29T01:55:55.452Z,13.73
2017-07-29T01:56:08.861Z,13.78
2017-07-29T01:56:22.006Z,13.75
2017-07-29T01:56:35.516Z,13.69
2017-07-29T01:56:48.890Z,13.69
2017-07-29T01:57:02.402Z,13.66
2017-07-29T01:57:15.832Z,13.72
2017-07-29T01:57:29.261Z,13.69
2017-07-29T01:57:42.679Z,13.7
2017-07-29T01:57:55.638Z,13.68
2017-07-29T01:58:09.141Z,13.69
2017-07-29T01:58:22.042Z,13.73
2017-07-29T01:58:35.455Z,13.73
2017-07-29T01:58:48.377Z,13.75
2017-07-29T01:59:01.842Z,13.78
2017-07-29T01:59:15.299Z,13.76
2017-07-29T01:59:28.713Z,13.75
2017-07-29T01:59:41.050Z,13.75
2017-07-29T01:59:54.494Z,13.76
2017-07-29T02:00:06.915Z,13.79
2017-07-29T02:00:21.196Z,13.73
2017-07-29T02:00:34.739Z,13.75
2017-07-29T02:00:48.168Z,13.73
2017-07-29T02:01:01.715Z,13.81
2017-07-29T02:01:15.155Z,13.75
2017-07-29T02:01:29.261Z,13.76
2017-07-29T02:01:42.654Z,13.78
2017-07-29T02:01:56.087Z,13.76
2017-07-29T02:02:09.043Z,13.69
2017-07-29T02:02:22.443Z,13.66
2017-07-29T02:02:35.931Z,13.7
2017-07-29T02:02:49.574Z,13.7
2017-07-29T02:03:02.978Z,13.68
2017-07-29T02:03:15.901Z,13.69
2017-07-29T02:03:29.384Z,13.62
2017-07-29T02:03:42.865Z,13.72
2017-07-29T02:03:55.800Z,13.63
2017-07-29T02:04:08.723Z,13.68
2017-07-29T02:04:22.220Z,13.65
2017-07-29T02:04:34.612Z,13.7
2017-07-29T02:04:48.020Z,13.7
2017-07-29T02:05:01.470Z,13.68
2017-07-29T02:05:14.932Z,13.68
2017-07-29T02:05:28.345Z,13.65
2017-07-29T02:05:41.804Z,13.62
2017-07-29T02:05:54.728Z,13.65
2017-07-29T02:06:07.676Z,13.69
2017-07-29T02:06:21.256Z,13.62
2017-07-29T02:06:34.675Z,13.69
2017-07-29T02:06:48.135Z,13.68
2017-07-29T02:07:01.637Z,13.7
2017-07-29T02:07:15.070Z,13.66
2017-07-29T02:07:27.987Z,13.66
2017-07-29T02:07:40.919Z,13.7
2017-07-29T02:07:54.377Z,13.57
2017-07-29T02:08:07.796Z,13.62
2017-07-29T02:08:21.289Z,13.62
2017-07-29T02:08:34.166Z,13.68
2017-07-29T02:08:47.046Z,13.66
2017-07-29T02:08:59.922Z,13.68
2017-07-29T02:09:13.368Z,13.68
2017-07-29T02:09:26.279Z,13.63
2017-07-29T02:09:39.229Z,13.57
2017-07-29T02:09:52.666Z,13.7
2017-07-29T02:10:05.543Z,13.65
2017-07-29T02:10:19.065Z,13.7
2017-07-29T02:10:32.091Z,13.69
2017-07-29T02:10:45.567Z,13.66
2017-07-29T02:10:58.533Z,13.75
2017-07-29T02:11:11.943Z,13.78
2017-07-29T02:11:25.411Z,13.75
2017-07-29T02:11:38.319Z,13.79
2017-07-29T02:11:51.771Z,13.84
2017-07-29T02:12:05.248Z,13.79
2017-07-29T02:12:18.182Z,13.88
2017-07-29T02:12:31.593Z,13.88
2017-07-29T02:12:44.994Z,13.86
2017-07-29T02:12:57.906Z,13.88
2017-07-29T02:13:10.817Z,13.88
2017-07-29T02:13:24.249Z,13.79
2017-07-29T02:13:37.705Z,13.93
2017-07-29T02:13:51.193Z,13.91
2017-07-29T02:14:04.687Z,13.88
2017-07-29T02:14:18.134Z,13.91
2017-07-29T02:14:31.588Z,13.9
2017-07-29T02:14:45.045Z,13.86
2017-07-29T02:14:58.516Z,13.87
2017-07-29T02:15:11.959Z,13.9
2017-07-29T02:15:24.871Z,13.93
2017-07-29T02:15:37.772Z,13.76
2017-07-29T02:15:51.188Z,13.88
2017-07-29T02:16:04.700Z,13.86
2017-07-29T02:16:18.173Z,13.79
2017-07-29T02:16:32.364Z,13.86
2017-07-29T02:16:45.814Z,13.76
2017-07-29T02:16:59.232Z,13.9
2017-07-29T02:17:12.147Z,13.78
2017-07-29T02:17:25.574Z,13.76
2017-07-29T02:17:38.499Z,13.76
2017-07-29T02:17:51.995Z,13.73
2017-07-29T02:18:05.456Z,13.79
2017-07-29T02:18:18.905Z,13.69
2017-07-29T02:18:32.290Z,13.69
2017-07-29T02:18:45.184Z,13.73
2017-07-29T02:18:58.619Z,13.68
2017-07-29T02:19:12.168Z,13.72
2017-07-29T02:19:25.133Z,13.7
2017-07-29T02:19:38.547Z,13.69
2017-07-29T02:19:52.056Z,13.68
2017-07-29T02:20:05.497Z,13.65
2017-07-29T02:20:18.425Z,13.72
2017-07-29T02:20:31.847Z,13.75
2017-07-29T02:20:44.744Z,13.69
2017-07-29T02:20:58.214Z,13.68
2017-07-29T02:21:11.129Z,13.68
2017-07-29T02:21:24.041Z,13.7
2017-07-29T02:21:36.931Z,13.7
2017-07-29T02:21:50.425Z,13.65
2017-07-29T02:22:03.346Z,13.68
2017-07-29T02:22:15.763Z,13.55
2017-07-29T02:22:28.726Z,13.68
2017-07-29T02:22:42.183Z,13.62
2017-07-29T02:22:55.629Z,13.69
2017-07-29T02:23:09.130Z,13.72
2017-07-29T02:23:22.579Z,13.7
2017-07-29T02:23:36.016Z,13.66
2017-07-29T02:23:49.419Z,13.75
2017-07-29T02:24:02.276Z,13.63
2017-07-29T02:24:15.763Z,13.65
2017-07-29T02:24:28.716Z,13.63
2017-07-29T02:24:42.208Z,13.73
2017-07-29T02:24:55.620Z,13.65
2017-07-29T02:25:09.022Z,13.66
2017-07-29T02:25:22.485Z,13.68
2017-07-29T02:25:36.037Z,13.66
2017-07-29T02:25:49.515Z,13.68
2017-07-29T02:26:02.976Z,13.68
2017-07-29T02:26:15.923Z,13.68
2017-07-29T02:26:29.400Z,13.63
2017-07-29T02:26:42.896Z,13.66
2017-07-29T02:26:56.359Z,13.68
2017-07-29T02:27:09.349Z,13.62
2017-07-29T02:27:22.728Z,13.66
2017-07-29T02:27:36.115Z,13.63
2017-07-29T02:27:49.571Z,13.6
2017-07-29T02:28:02.479Z,13.54
2017-07-29T02:28:15.927Z,13.66
2017-07-29T02:28:29.466Z,13.65
2017-07-29T02:28:42.927Z,13.66
2017-07-29T02:28:55.847Z,13.65
2017-07-29T02:29:09.311Z,13.66
2017-07-29T02:29:22.735Z,13.62
2017-07-29T02:29:35.729Z,13.7
2017-07-29T02:29:49.182Z,13.62
2017-07-29T02:30:02.113Z,13.58
2017-07-29T02:30:15.531Z,13.65
2017-07-29T02:30:29.077Z,13.63
2017-07-29T02:30:42.601Z,13.6
2017-07-29T02:30:56.111Z,13.63
2017-07-29T02:31:09.527Z,13.62
2017-07-29T02:31:22.985Z,13.6
2017-07-29T02:31:36.504Z,13.62
2017-07-29T02:31:49.968Z,13.68
2017-07-29T02:32:03.466Z,13.58
2017-07-29T02:32:16.364Z,13.57
2017-07-29T02:32:29.833Z,13.55
2017-07-29T02:32:43.265Z,13.51
2017-07-29T02:32:56.147Z,13.65
2017-07-29T02:33:09.710Z,13.58
2017-07-29T02:33:23.190Z,13.57
2017-07-29T02:33:36.694Z,13.58
2017-07-29T02:33:50.154Z,13.58
2017-07-29T02:34:03.053Z,13.53
2017-07-29T02:34:16.521Z,13.62
2017-07-29T02:34:29.972Z,13.53
2017-07-29T02:34:43.458Z,13.6
2017-07-29T02:34:56.940Z,13.65
2017-07-29T02:35:10.361Z,13.66
2017-07-29T02:35:23.806Z,13.57
2017-07-29T02:35:37.298Z,13.68
2017-07-29T02:35:50.763Z,13.68
2017-07-29T02:36:04.213Z,13.57
2017-07-29T02:36:17.837Z,13.63
2017-07-29T02:36:31.350Z,13.68
2017-07-29T02:36:44.300Z,13.65
2017-07-29T02:36:57.660Z,13.68
2017-07-29T02:37:10.622Z,13.68
2017-07-29T02:37:24.019Z,13.66
2017-07-29T02:37:37.421Z,13.68
2017-07-29T02:37:50.915Z,13.68
2017-07-29T02:38:04.355Z,13.69
2017-07-29T02:38:17.262Z,13.72
2017-07-29T02:38:30.702Z,13.7
2017-07-29T02:38:43.646Z,13.66
2017-07-29T02:38:56.555Z,13.69
2017-07-29T02:39:09.526Z,13.7
2017-07-29T02:39:21.946Z,13.68
2017-07-29T02:39:35.406Z,13.66
2017-07-29T02:39:48.944Z,13.75
2017-07-29T02:40:02.393Z,13.65
2017-07-29T02:40:15.313Z,13.65
2017-07-29T02:40:28.739Z,13.6
2017-07-29T02:40:42.270Z,13.68
2017-07-29T02:40:55.725Z,13.69
2017-07-29T02:41:09.087Z,13.69
2017-07-29T02:41:22.486Z,13.62
2017-07-29T02:41:35.973Z,13.68
2017-07-29T02:41:49.465Z,13.58
2017-07-29T02:42:01.841Z,13.57
2017-07-29T02:42:15.290Z,13.51
2017-07-29T02:42:28.747Z,13.55
2017-07-29T02:42:42.228Z,13.54
2017-07-29T02:42:55.732Z,13.53
2017-07-29T02:43:09.167Z,13.57
2017-07-29T02:43:22.097Z,13.63
2017-07-29T02:43:35.557Z,13.53
2017-07-29T02:43:49.007Z,13.47
2017-07-29T02:44:02.404Z,13.58
2017-07-29T02:44:14.785Z,13.47
2017-07-29T02:44:28.221Z,13.5
2017-07-29T02:44:41.127Z,13.47
2017-07-29T02:44:54.533Z,13.45
2017-07-29T02:45:07.969Z,13.37
2017-07-29T02:45:21.505Z,13.36
2017-07-29T02:45:35.872Z,13.42
2017-07-29T02:45:49.393Z,13.44
2017-07-29T02:46:02.310Z,13.47
2017-07-29T02:46:15.829Z,13.37
2017-07-29T02:46:29.302Z,13.42
2017-07-29T02:46:43.514Z,13.42
2017-07-29T02:46:56.953Z,13.42
2017-07-29T02:47:10.347Z,13.37
2017-07-29T02:47:23.731Z,13.36
2017-07-29T02:47:36.632Z,13.35
2017-07-29T02:47:49.584Z,13.42
2017-07-29T02:48:01.981Z,13.39
2017-07-29T02:48:14.882Z,13.39
2017-07-29T02:48:28.381Z,13.36
2017-07-29T02:48:41.847Z,13.37
2017-07-29T02:48:55.290Z,13.47
2017-07-29T02:49:08.802Z,13.39
2017-07-29T02:49:22.260Z,13.44
2017-07-29T02:49:35.763Z,13.48
2017-07-29T02:49:48.647Z,13.53
2017-07-29T02:50:02.041Z,13.44
2017-07-29T02:50:14.982Z,13.48
2017-07-29T02:50:28.448Z,13.45
2017-07-29T02:50:41.860Z,13.57
2017-07-29T02:50:55.293Z,13.57
2017-07-29T02:51:08.768Z,13.6
2017-07-29T02:51:22.256Z,13.55
2017-07-29T02:51:34.676Z,13.57
2017-07-29T02:51:48.360Z,13.57
2017-07-29T02:52:01.360Z,13.54